sensor_id;sensor_type;location;lat;lon;timestamp;P1;durP1;ratioP1;P2;durP2;ratioP2
78430;SDS011;67727;50.236;22.452;2023-03-01T00:01:07;114.70;;;47.00;;
78430;SDS011;67727;50.236;22.452;2023-03-01T00:03:36;114.10;;;46.50;;
78430;SDS011;67727;50.236;22.452;2023-03-01T00:06:03;113.60;;;48.00;;
78430;SDS011;67727;50.236;22.452;2023-03-01T00:13:32;99.50;;;42.30;;
78430;SDS011;67727;50.236;22.452;2023-03-01T00:16:01;101.90;;;41.60;;
78430;SDS011;67727;50.236;22.452;2023-03-01T00:18:29;97.20;;;41.40;;
78430;SDS011;67727;50.236;22.452;2023-03-01T00:20:56;96.20;;;39.00;;
78430;SDS011;67727;50.236;22.452;2023-03-01T00:23:24;87.50;;;37.40;;
78430;SDS011;67727;50.236;22.452;2023-03-01T00:25:51;87.30;;;38.50;;
78430;SDS011;67727;50.236;22.452;2023-03-01T00:28:19;92.80;;;39.00;;
78430;SDS011;67727;50.236;22.452;2023-03-01T00:33:14;97.40;;;41.30;;
78430;SDS011;67727;50.236;22.452;2023-03-01T00:35:41;101.50;;;43.60;;
78430;SDS011;67727;50.236;22.452;2023-03-01T00:38:08;90.00;;;40.40;;
78430;SDS011;67727;50.236;22.452;2023-03-01T00:40:36;93.20;;;41.00;;
78430;SDS011;67727;50.236;22.452;2023-03-01T00:43:03;86.30;;;35.70;;
78430;SDS011;67727;50.236;22.452;2023-03-01T00:45:32;94.70;;;41.30;;
78430;SDS011;67727;50.236;22.452;2023-03-01T00:48:00;91.10;;;40.20;;
78430;SDS011;67727;50.236;22.452;2023-03-01T00:50:30;99.00;;;40.60;;
78430;SDS011;67727;50.236;22.452;2023-03-01T00:52:57;92.40;;;40.90;;
78430;SDS011;67727;50.236;22.452;2023-03-01T00:55:24;90.00;;;38.90;;
78430;SDS011;67727;50.236;22.452;2023-03-01T00:57:52;91.10;;;37.40;;
78430;SDS011;67727;50.236;22.452;2023-03-01T01:00:19;81.60;;;36.00;;
78430;SDS011;67727;50.236;22.452;2023-03-01T01:02:47;76.30;;;32.80;;
78430;SDS011;67727;50.236;22.452;2023-03-01T01:05:15;78.00;;;32.20;;
78430;SDS011;67727;50.236;22.452;2023-03-01T01:07:47;80.60;;;32.60;;
78430;SDS011;67727;50.236;22.452;2023-03-01T01:10:15;83.00;;;36.60;;
78430;SDS011;67727;50.236;22.452;2023-03-01T01:12:48;71.30;;;29.50;;
78430;SDS011;67727;50.236;22.452;2023-03-01T01:15:15;68.60;;;30.10;;
78430;SDS011;67727;50.236;22.452;2023-03-01T01:17:43;66.70;;;27.90;;
78430;SDS011;67727;50.236;22.452;2023-03-01T01:20:10;69.90;;;29.30;;
78430;SDS011;67727;50.236;22.452;2023-03-01T01:22:38;65.00;;;30.10;;
78430;SDS011;67727;50.236;22.452;2023-03-01T01:25:05;55.10;;;24.00;;
78430;SDS011;67727;50.236;22.452;2023-03-01T01:27:32;58.40;;;23.90;;
78430;SDS011;67727;50.236;22.452;2023-03-01T01:29:59;49.10;;;23.40;;
78430;SDS011;67727;50.236;22.452;2023-03-01T01:32:27;53.70;;;21.80;;
78430;SDS011;67727;50.236;22.452;2023-03-01T01:34:54;50.80;;;23.10;;
78430;SDS011;67727;50.236;22.452;2023-03-01T01:37:21;49.90;;;22.10;;
78430;SDS011;67727;50.236;22.452;2023-03-01T01:39:48;50.40;;;22.40;;
78430;SDS011;67727;50.236;22.452;2023-03-01T01:42:16;64.80;;;23.70;;
78430;SDS011;67727;50.236;22.452;2023-03-01T01:44:45;70.90;;;26.10;;
78430;SDS011;67727;50.236;22.452;2023-03-01T01:47:20;60.20;;;24.90;;
78430;SDS011;67727;50.236;22.452;2023-03-01T01:49:49;100.20;;;35.20;;
78430;SDS011;67727;50.236;22.452;2023-03-01T01:52:25;122.90;;;40.30;;
78430;SDS011;67727;50.236;22.452;2023-03-01T01:54:57;94.00;;;32.80;;
78430;SDS011;67727;50.236;22.452;2023-03-01T01:57:39;119.10;;;36.20;;
78430;SDS011;67727;50.236;22.452;2023-03-01T02:00:10;76.10;;;30.40;;
78430;SDS011;67727;50.236;22.452;2023-03-01T02:02:39;76.40;;;30.50;;
78430;SDS011;67727;50.236;22.452;2023-03-01T02:05:11;82.00;;;30.60;;
78430;SDS011;67727;50.236;22.452;2023-03-01T02:07:44;77.40;;;30.40;;
78430;SDS011;67727;50.236;22.452;2023-03-01T02:10:12;67.60;;;28.60;;
78430;SDS011;67727;50.236;22.452;2023-03-01T02:12:40;58.60;;;26.60;;
78430;SDS011;67727;50.236;22.452;2023-03-01T02:15:07;61.20;;;26.30;;
78430;SDS011;67727;50.236;22.452;2023-03-01T02:17:35;58.40;;;26.20;;
78430;SDS011;67727;50.236;22.452;2023-03-01T02:22:34;61.70;;;26.10;;
78430;SDS011;67727;50.236;22.452;2023-03-01T02:25:07;48.90;;;22.00;;
78430;SDS011;67727;50.236;22.452;2023-03-01T02:30:42;52.90;;;22.50;;
78430;SDS011;67727;50.236;22.452;2023-03-01T02:38:51;70.00;;;30.00;;
78430;SDS011;67727;50.236;22.452;2023-03-01T02:41:20;75.70;;;32.30;;
78430;SDS011;67727;50.236;22.452;2023-03-01T02:43:49;75.10;;;32.70;;
78430;SDS011;67727;50.236;22.452;2023-03-01T02:46:21;80.60;;;32.50;;
78430;SDS011;67727;50.236;22.452;2023-03-01T02:48:56;72.90;;;31.90;;
78430;SDS011;67727;50.236;22.452;2023-03-01T02:54:33;55.00;;;24.80;;
78430;SDS011;67727;50.236;22.452;2023-03-01T02:57:09;50.30;;;22.00;;
78430;SDS011;67727;50.236;22.452;2023-03-01T02:59:36;54.60;;;23.10;;
78430;SDS011;67727;50.236;22.452;2023-03-01T03:02:19;72.20;;;28.80;;
78430;SDS011;67727;50.236;22.452;2023-03-01T03:05:04;64.80;;;27.70;;
78430;SDS011;67727;50.236;22.452;2023-03-01T03:07:36;73.50;;;29.80;;
78430;SDS011;67727;50.236;22.452;2023-03-01T03:10:06;72.10;;;29.60;;
78430;SDS011;67727;50.236;22.452;2023-03-01T03:12:40;66.20;;;25.30;;
78430;SDS011;67727;50.236;22.452;2023-03-01T03:15:09;66.60;;;25.00;;
78430;SDS011;67727;50.236;22.452;2023-03-01T03:17:39;62.70;;;25.30;;
78430;SDS011;67727;50.236;22.452;2023-03-01T03:20:09;63.80;;;25.90;;
78430;SDS011;67727;50.236;22.452;2023-03-01T03:22:38;76.50;;;27.50;;
78430;SDS011;67727;50.236;22.452;2023-03-01T03:25:07;62.20;;;26.70;;
78430;SDS011;67727;50.236;22.452;2023-03-01T03:27:37;70.30;;;26.70;;
78430;SDS011;67727;50.236;22.452;2023-03-01T03:30:06;64.60;;;28.50;;
78430;SDS011;67727;50.236;22.452;2023-03-01T03:32:36;66.70;;;27.60;;
78430;SDS011;67727;50.236;22.452;2023-03-01T03:35:04;58.60;;;28.80;;
78430;SDS011;67727;50.236;22.452;2023-03-01T03:37:36;61.70;;;26.70;;
78430;SDS011;67727;50.236;22.452;2023-03-01T03:40:23;55.70;;;25.80;;
78430;SDS011;67727;50.236;22.452;2023-03-01T03:42:51;61.90;;;28.70;;
78430;SDS011;67727;50.236;22.452;2023-03-01T03:45:18;61.50;;;25.10;;
78430;SDS011;67727;50.236;22.452;2023-03-01T03:47:45;54.30;;;23.60;;
78430;SDS011;67727;50.236;22.452;2023-03-01T03:50:13;58.60;;;24.00;;
78430;SDS011;67727;50.236;22.452;2023-03-01T03:52:41;60.20;;;27.90;;
78430;SDS011;67727;50.236;22.452;2023-03-01T03:55:10;69.80;;;31.10;;
78430;SDS011;67727;50.236;22.452;2023-03-01T03:57:39;81.80;;;37.90;;
78430;SDS011;67727;50.236;22.452;2023-03-01T04:00:08;85.40;;;35.90;;
78430;SDS011;67727;50.236;22.452;2023-03-01T04:02:39;65.60;;;30.90;;
78430;SDS011;67727;50.236;22.452;2023-03-01T04:07:35;65.80;;;28.50;;
78430;SDS011;67727;50.236;22.452;2023-03-01T04:10:04;62.80;;;27.20;;
78430;SDS011;67727;50.236;22.452;2023-03-01T04:12:33;68.70;;;27.90;;
78430;SDS011;67727;50.236;22.452;2023-03-01T04:15:01;61.80;;;28.30;;
78430;SDS011;67727;50.236;22.452;2023-03-01T04:17:42;61.50;;;27.90;;
78430;SDS011;67727;50.236;22.452;2023-03-01T04:20:12;65.20;;;31.80;;
78430;SDS011;67727;50.236;22.452;2023-03-01T04:22:44;65.00;;;32.00;;
78430;SDS011;67727;50.236;22.452;2023-03-01T04:25:14;61.30;;;28.60;;
78430;SDS011;67727;50.236;22.452;2023-03-01T04:27:41;71.30;;;32.40;;
78430;SDS011;67727;50.236;22.452;2023-03-01T04:30:08;62.90;;;28.20;;
78430;SDS011;67727;50.236;22.452;2023-03-01T04:32:36;78.10;;;32.30;;
78430;SDS011;67727;50.236;22.452;2023-03-01T04:35:03;72.90;;;32.00;;
78430;SDS011;67727;50.236;22.452;2023-03-01T04:37:30;67.30;;;31.10;;
78430;SDS011;67727;50.236;22.452;2023-03-01T04:39:58;76.90;;;32.80;;
78430;SDS011;67727;50.236;22.452;2023-03-01T04:42:25;69.10;;;30.70;;
78430;SDS011;67727;50.236;22.452;2023-03-01T04:44:52;70.50;;;28.40;;
78430;SDS011;67727;50.236;22.452;2023-03-01T04:47:19;71.50;;;33.70;;
78430;SDS011;67727;50.236;22.452;2023-03-01T04:49:46;77.20;;;35.00;;
78430;SDS011;67727;50.236;22.452;2023-03-01T04:52:13;70.40;;;34.50;;
78430;SDS011;67727;50.236;22.452;2023-03-01T04:54:40;67.70;;;35.00;;
78430;SDS011;67727;50.236;22.452;2023-03-01T04:57:07;74.20;;;31.70;;
78430;SDS011;67727;50.236;22.452;2023-03-01T04:59:34;60.80;;;28.70;;
78430;SDS011;67727;50.236;22.452;2023-03-01T05:02:02;67.10;;;30.90;;
78430;SDS011;67727;50.236;22.452;2023-03-01T05:04:30;70.40;;;31.00;;
78430;SDS011;67727;50.236;22.452;2023-03-01T05:06:57;66.70;;;31.80;;
78430;SDS011;67727;50.236;22.452;2023-03-01T05:09:25;71.30;;;30.00;;
78430;SDS011;67727;50.236;22.452;2023-03-01T05:11:52;56.40;;;27.80;;
78430;SDS011;67727;50.236;22.452;2023-03-01T05:14:19;60.70;;;27.70;;
78430;SDS011;67727;50.236;22.452;2023-03-01T05:16:46;62.10;;;27.80;;
78430;SDS011;67727;50.236;22.452;2023-03-01T05:19:13;58.80;;;26.90;;
78430;SDS011;67727;50.236;22.452;2023-03-01T05:21:48;61.80;;;28.50;;
78430;SDS011;67727;50.236;22.452;2023-03-01T05:24:29;52.10;;;25.30;;
78430;SDS011;67727;50.236;22.452;2023-03-01T05:26:57;49.20;;;24.10;;
78430;SDS011;67727;50.236;22.452;2023-03-01T05:31:56;48.50;;;22.10;;
78430;SDS011;67727;50.236;22.452;2023-03-01T05:34:26;49.90;;;24.10;;
78430;SDS011;67727;50.236;22.452;2023-03-01T05:36:55;53.50;;;22.80;;
78430;SDS011;67727;50.236;22.452;2023-03-01T05:39:24;65.30;;;30.30;;
78430;SDS011;67727;50.236;22.452;2023-03-01T05:41:53;73.60;;;32.20;;
78430;SDS011;67727;50.236;22.452;2023-03-01T05:44:27;78.80;;;37.30;;
78430;SDS011;67727;50.236;22.452;2023-03-01T05:46:55;98.30;;;44.30;;
78430;SDS011;67727;50.236;22.452;2023-03-01T05:49:23;87.00;;;43.70;;
78430;SDS011;67727;50.236;22.452;2023-03-01T05:51:51;84.70;;;36.00;;
78430;SDS011;67727;50.236;22.452;2023-03-01T05:54:20;72.40;;;32.90;;
78430;SDS011;67727;50.236;22.452;2023-03-01T05:56:48;68.50;;;32.50;;
78430;SDS011;67727;50.236;22.452;2023-03-01T05:59:15;78.50;;;34.60;;
78430;SDS011;67727;50.236;22.452;2023-03-01T06:01:43;67.50;;;29.10;;
78430;SDS011;67727;50.236;22.452;2023-03-01T06:04:10;58.50;;;27.40;;
78430;SDS011;67727;50.236;22.452;2023-03-01T06:06:38;64.30;;;27.20;;
78430;SDS011;67727;50.236;22.452;2023-03-01T06:09:05;64.20;;;28.80;;
78430;SDS011;67727;50.236;22.452;2023-03-01T06:11:35;74.00;;;29.40;;
78430;SDS011;67727;50.236;22.452;2023-03-01T06:14:03;65.00;;;28.50;;
78430;SDS011;67727;50.236;22.452;2023-03-01T06:16:33;64.00;;;29.20;;
78430;SDS011;67727;50.236;22.452;2023-03-01T06:19:00;65.80;;;27.80;;
78430;SDS011;67727;50.236;22.452;2023-03-01T06:21:27;54.30;;;26.70;;
78430;SDS011;67727;50.236;22.452;2023-03-01T06:23:54;60.60;;;27.20;;
78430;SDS011;67727;50.236;22.452;2023-03-01T06:26:21;61.80;;;29.70;;
78430;SDS011;67727;50.236;22.452;2023-03-01T06:28:48;68.50;;;31.10;;
78430;SDS011;67727;50.236;22.452;2023-03-01T06:31:15;98.40;;;48.30;;
78430;SDS011;67727;50.236;22.452;2023-03-01T06:33:42;120.60;;;58.10;;
78430;SDS011;67727;50.236;22.452;2023-03-01T06:36:11;98.30;;;47.00;;
78430;SDS011;67727;50.236;22.452;2023-03-01T06:38:38;84.20;;;40.20;;
78430;SDS011;67727;50.236;22.452;2023-03-01T06:41:07;78.30;;;37.80;;
78430;SDS011;67727;50.236;22.452;2023-03-01T06:43:34;81.90;;;39.00;;
78430;SDS011;67727;50.236;22.452;2023-03-01T06:46:03;78.80;;;32.80;;
78430;SDS011;67727;50.236;22.452;2023-03-01T06:48:33;69.20;;;29.70;;
78430;SDS011;67727;50.236;22.452;2023-03-01T06:51:01;76.50;;;31.80;;
78430;SDS011;67727;50.236;22.452;2023-03-01T06:53:28;66.40;;;30.30;;
78430;SDS011;67727;50.236;22.452;2023-03-01T06:55:56;64.70;;;30.80;;
78430;SDS011;67727;50.236;22.452;2023-03-01T06:58:24;63.50;;;29.50;;
78430;SDS011;67727;50.236;22.452;2023-03-01T07:00:51;64.30;;;30.60;;
78430;SDS011;67727;50.236;22.452;2023-03-01T07:03:18;55.10;;;28.30;;
78430;SDS011;67727;50.236;22.452;2023-03-01T07:05:48;65.70;;;31.00;;
78430;SDS011;67727;50.236;22.452;2023-03-01T07:08:16;54.80;;;28.80;;
78430;SDS011;67727;50.236;22.452;2023-03-01T07:10:43;58.20;;;26.30;;
78430;SDS011;67727;50.236;22.452;2023-03-01T07:13:10;46.60;;;22.00;;
78430;SDS011;67727;50.236;22.452;2023-03-01T07:15:39;65.60;;;27.90;;
78430;SDS011;67727;50.236;22.452;2023-03-01T07:18:06;56.40;;;27.90;;
78430;SDS011;67727;50.236;22.452;2023-03-01T07:20:34;57.20;;;25.50;;
78430;SDS011;67727;50.236;22.452;2023-03-01T07:23:01;50.00;;;21.80;;
78430;SDS011;67727;50.236;22.452;2023-03-01T07:25:28;44.90;;;22.60;;
78430;SDS011;67727;50.236;22.452;2023-03-01T07:27:55;44.60;;;20.90;;
78430;SDS011;67727;50.236;22.452;2023-03-01T07:30:23;40.60;;;18.70;;
78430;SDS011;67727;50.236;22.452;2023-03-01T07:32:54;52.00;;;25.20;;
78430;SDS011;67727;50.236;22.452;2023-03-01T07:35:23;46.90;;;20.70;;
78430;SDS011;67727;50.236;22.452;2023-03-01T07:37:52;36.30;;;18.40;;
78430;SDS011;67727;50.236;22.452;2023-03-01T07:40:20;37.20;;;17.40;;
78430;SDS011;67727;50.236;22.452;2023-03-01T07:42:47;30.70;;;16.00;;
78430;SDS011;67727;50.236;22.452;2023-03-01T07:45:14;21.10;;;10.30;;
78430;SDS011;67727;50.236;22.452;2023-03-01T07:47:41;31.00;;;16.10;;
78430;SDS011;67727;50.236;22.452;2023-03-01T07:50:08;29.90;;;13.60;;
78430;SDS011;67727;50.236;22.452;2023-03-01T07:52:36;30.40;;;16.40;;
78430;SDS011;67727;50.236;22.452;2023-03-01T07:55:03;32.90;;;16.70;;
78430;SDS011;67727;50.236;22.452;2023-03-01T07:57:31;29.60;;;15.90;;
78430;SDS011;67727;50.236;22.452;2023-03-01T07:59:58;35.20;;;17.30;;
78430;SDS011;67727;50.236;22.452;2023-03-01T08:02:25;24.90;;;12.80;;
78430;SDS011;67727;50.236;22.452;2023-03-01T08:04:52;31.40;;;17.20;;
78430;SDS011;67727;50.236;22.452;2023-03-01T08:07:19;30.50;;;17.30;;
78430;SDS011;67727;50.236;22.452;2023-03-01T08:09:47;34.80;;;18.40;;
78430;SDS011;67727;50.236;22.452;2023-03-01T08:12:14;33.00;;;17.60;;
78430;SDS011;67727;50.236;22.452;2023-03-01T08:14:42;30.50;;;16.10;;
78430;SDS011;67727;50.236;22.452;2023-03-01T08:17:09;42.30;;;22.10;;
78430;SDS011;67727;50.236;22.452;2023-03-01T08:19:37;52.20;;;28.00;;
78430;SDS011;67727;50.236;22.452;2023-03-01T08:22:04;56.10;;;27.00;;
78430;SDS011;67727;50.236;22.452;2023-03-01T08:24:31;39.40;;;20.60;;
78430;SDS011;67727;50.236;22.452;2023-03-01T08:26:58;57.10;;;26.90;;
78430;SDS011;67727;50.236;22.452;2023-03-01T08:29:25;52.60;;;26.90;;
78430;SDS011;67727;50.236;22.452;2023-03-01T08:31:53;55.40;;;27.90;;
78430;SDS011;67727;50.236;22.452;2023-03-01T08:34:20;61.40;;;27.80;;
78430;SDS011;67727;50.236;22.452;2023-03-01T08:36:47;51.30;;;25.40;;
78430;SDS011;67727;50.236;22.452;2023-03-01T08:39:15;42.40;;;22.70;;
78430;SDS011;67727;50.236;22.452;2023-03-01T08:41:43;45.70;;;23.70;;
78430;SDS011;67727;50.236;22.452;2023-03-01T08:44:11;40.80;;;23.00;;
78430;SDS011;67727;50.236;22.452;2023-03-01T08:46:40;51.30;;;26.80;;
78430;SDS011;67727;50.236;22.452;2023-03-01T08:49:11;45.50;;;22.60;;
78430;SDS011;67727;50.236;22.452;2023-03-01T08:51:44;46.40;;;23.30;;
78430;SDS011;67727;50.236;22.452;2023-03-01T08:54:15;45.40;;;24.90;;
78430;SDS011;67727;50.236;22.452;2023-03-01T08:56:47;31.80;;;19.20;;
78430;SDS011;67727;50.236;22.452;2023-03-01T08:59:14;47.00;;;24.50;;
78430;SDS011;67727;50.236;22.452;2023-03-01T09:01:43;41.50;;;22.30;;
78430;SDS011;67727;50.236;22.452;2023-03-01T09:04:11;49.40;;;23.50;;
78430;SDS011;67727;50.236;22.452;2023-03-01T09:06:38;49.30;;;27.10;;
78430;SDS011;67727;50.236;22.452;2023-03-01T09:09:05;52.80;;;26.60;;
78430;SDS011;67727;50.236;22.452;2023-03-01T09:11:34;53.80;;;27.10;;
78430;SDS011;67727;50.236;22.452;2023-03-01T09:14:05;47.60;;;27.30;;
78430;SDS011;67727;50.236;22.452;2023-03-01T09:16:32;49.00;;;24.00;;
78430;SDS011;67727;50.236;22.452;2023-03-01T09:19:02;57.60;;;29.10;;
78430;SDS011;67727;50.236;22.452;2023-03-01T09:21:30;49.50;;;26.10;;
78430;SDS011;67727;50.236;22.452;2023-03-01T09:23:57;52.00;;;25.70;;
78430;SDS011;67727;50.236;22.452;2023-03-01T09:26:25;47.50;;;23.00;;
78430;SDS011;67727;50.236;22.452;2023-03-01T09:28:53;46.10;;;24.10;;
78430;SDS011;67727;50.236;22.452;2023-03-01T09:31:22;22.90;;;11.40;;
78430;SDS011;67727;50.236;22.452;2023-03-01T09:33:51;42.30;;;22.80;;
78430;SDS011;67727;50.236;22.452;2023-03-01T09:36:20;50.10;;;24.50;;
78430;SDS011;67727;50.236;22.452;2023-03-01T09:38:49;15.20;;;8.60;;
78430;SDS011;67727;50.236;22.452;2023-03-01T09:44:01;36.80;;;19.20;;
78430;SDS011;67727;50.236;22.452;2023-03-01T09:46:37;38.20;;;22.20;;
78430;SDS011;67727;50.236;22.452;2023-03-01T09:49:21;39.20;;;20.30;;
78430;SDS011;67727;50.236;22.452;2023-03-01T09:51:55;34.30;;;19.20;;
78430;SDS011;67727;50.236;22.452;2023-03-01T09:54:41;37.10;;;20.90;;
78430;SDS011;67727;50.236;22.452;2023-03-01T09:57:43;28.50;;;14.90;;
78430;SDS011;67727;50.236;22.452;2023-03-01T10:00:21;36.00;;;18.20;;
78430;SDS011;67727;50.236;22.452;2023-03-01T10:05:50;31.40;;;18.30;;
78430;SDS011;67727;50.236;22.452;2023-03-01T10:11:28;22.60;;;13.40;;
78430;SDS011;67727;50.236;22.452;2023-03-01T10:17:23;32.40;;;17.80;;
78430;SDS011;67727;50.236;22.452;2023-03-01T10:19:51;32.30;;;18.30;;
78430;SDS011;67727;50.236;22.452;2023-03-01T10:22:20;30.90;;;17.80;;
78430;SDS011;67727;50.236;22.452;2023-03-01T10:24:58;38.10;;;20.20;;
78430;SDS011;67727;50.236;22.452;2023-03-01T10:30:17;31.90;;;18.50;;
78430;SDS011;67727;50.236;22.452;2023-03-01T10:32:48;38.60;;;20.80;;
78430;SDS011;67727;50.236;22.452;2023-03-01T10:35:22;35.80;;;19.20;;
78430;SDS011;67727;50.236;22.452;2023-03-01T10:40:33;35.60;;;19.50;;
78430;SDS011;67727;50.236;22.452;2023-03-01T10:43:04;34.90;;;19.10;;
78430;SDS011;67727;50.236;22.452;2023-03-01T10:45:34;34.80;;;17.20;;
78430;SDS011;67727;50.236;22.452;2023-03-01T10:48:08;34.40;;;20.00;;
78430;SDS011;67727;50.236;22.452;2023-03-01T10:50:44;37.70;;;20.40;;
78430;SDS011;67727;50.236;22.452;2023-03-01T10:55:59;31.70;;;18.90;;
78430;SDS011;67727;50.236;22.452;2023-03-01T10:58:30;41.90;;;20.80;;
78430;SDS011;67727;50.236;22.452;2023-03-01T11:01:04;22.90;;;13.40;;
78430;SDS011;67727;50.236;22.452;2023-03-01T11:03:35;29.40;;;16.70;;
78430;SDS011;67727;50.236;22.452;2023-03-01T11:06:08;28.40;;;16.10;;
78430;SDS011;67727;50.236;22.452;2023-03-01T11:08:51;31.30;;;16.20;;
78430;SDS011;67727;50.236;22.452;2023-03-01T11:11:34;27.50;;;15.10;;
78430;SDS011;67727;50.236;22.452;2023-03-01T11:16:32;27.50;;;14.80;;
78430;SDS011;67727;50.236;22.452;2023-03-01T11:24:05;24.80;;;15.30;;
78430;SDS011;67727;50.236;22.452;2023-03-01T11:26:38;28.40;;;15.60;;
78430;SDS011;67727;50.236;22.452;2023-03-01T11:32:19;22.30;;;14.10;;
78430;SDS011;67727;50.236;22.452;2023-03-01T11:34:53;26.10;;;15.20;;
78430;SDS011;67727;50.236;22.452;2023-03-01T11:37:46;16.70;;;9.80;;
78430;SDS011;67727;50.236;22.452;2023-03-01T11:42:55;31.70;;;16.10;;
78430;SDS011;67727;50.236;22.452;2023-03-01T11:48:25;25.60;;;14.30;;
78430;SDS011;67727;50.236;22.452;2023-03-01T11:51:06;24.90;;;14.40;;
78430;SDS011;67727;50.236;22.452;2023-03-01T11:56:38;23.20;;;13.10;;
78430;SDS011;67727;50.236;22.452;2023-03-01T12:02:02;20.00;;;13.20;;
78430;SDS011;67727;50.236;22.452;2023-03-01T12:05:20;25.40;;;13.40;;
78430;SDS011;67727;50.236;22.452;2023-03-01T12:07:56;28.80;;;14.80;;
78430;SDS011;67727;50.236;22.452;2023-03-01T12:10:36;24.80;;;14.10;;
78430;SDS011;67727;50.236;22.452;2023-03-01T12:29:19;35.30;;;19.10;;
78430;SDS011;67727;50.236;22.452;2023-03-01T12:51:05;26.40;;;14.20;;
78430;SDS011;67727;50.236;22.452;2023-03-01T12:53:50;23.00;;;13.80;;
78430;SDS011;67727;50.236;22.452;2023-03-01T12:56:21;20.40;;;10.60;;
78430;SDS011;67727;50.236;22.452;2023-03-01T13:04:51;21.80;;;11.70;;
78430;SDS011;67727;50.236;22.452;2023-03-01T13:07:25;22.10;;;12.30;;
78430;SDS011;67727;50.236;22.452;2023-03-01T13:20:32;17.20;;;9.80;;
78430;SDS011;67727;50.236;22.452;2023-03-01T13:23:04;20.20;;;10.40;;
78430;SDS011;67727;50.236;22.452;2023-03-01T13:25:45;17.00;;;10.30;;
78430;SDS011;67727;50.236;22.452;2023-03-01T13:30:58;24.50;;;13.90;;
78430;SDS011;67727;50.236;22.452;2023-03-01T13:35:53;28.80;;;16.60;;
78430;SDS011;67727;50.236;22.452;2023-03-01T13:38:45;21.60;;;12.00;;
78430;SDS011;67727;50.236;22.452;2023-03-01T13:41:15;23.80;;;11.70;;
78430;SDS011;67727;50.236;22.452;2023-03-01T13:44:11;26.10;;;13.00;;
78430;SDS011;67727;50.236;22.452;2023-03-01T13:49:44;20.90;;;11.20;;
78430;SDS011;67727;50.236;22.452;2023-03-01T13:55:17;23.70;;;10.70;;
78430;SDS011;67727;50.236;22.452;2023-03-01T13:57:48;25.60;;;11.90;;
78430;SDS011;67727;50.236;22.452;2023-03-01T14:02:59;19.70;;;11.90;;
78430;SDS011;67727;50.236;22.452;2023-03-01T14:05:28;16.20;;;7.80;;
78430;SDS011;67727;50.236;22.452;2023-03-01T14:10:24;13.80;;;8.00;;
78430;SDS011;67727;50.236;22.452;2023-03-01T14:13:09;17.20;;;9.80;;
78430;SDS011;67727;50.236;22.452;2023-03-01T14:21:18;20.00;;;9.30;;
78430;SDS011;67727;50.236;22.452;2023-03-01T14:23:45;16.30;;;8.30;;
78430;SDS011;67727;50.236;22.452;2023-03-01T14:26:13;13.60;;;8.00;;
78430;SDS011;67727;50.236;22.452;2023-03-01T14:28:47;11.10;;;6.80;;
78430;SDS011;67727;50.236;22.452;2023-03-01T14:31:29;11.90;;;7.60;;
78430;SDS011;67727;50.236;22.452;2023-03-01T14:34:01;16.40;;;7.80;;
78430;SDS011;67727;50.236;22.452;2023-03-01T14:36:30;10.20;;;7.50;;
78430;SDS011;67727;50.236;22.452;2023-03-01T14:39:00;23.70;;;11.10;;
78430;SDS011;67727;50.236;22.452;2023-03-01T14:41:35;20.40;;;8.70;;
78430;SDS011;67727;50.236;22.452;2023-03-01T14:44:06;21.40;;;11.40;;
78430;SDS011;67727;50.236;22.452;2023-03-01T14:46:40;13.10;;;7.60;;
78430;SDS011;67727;50.236;22.452;2023-03-01T14:49:11;15.00;;;8.70;;
78430;SDS011;67727;50.236;22.452;2023-03-01T14:51:59;15.00;;;7.50;;
78430;SDS011;67727;50.236;22.452;2023-03-01T14:54:44;20.50;;;11.10;;
78430;SDS011;67727;50.236;22.452;2023-03-01T14:57:22;18.10;;;9.30;;
78430;SDS011;67727;50.236;22.452;2023-03-01T14:59:53;15.40;;;8.80;;
78430;SDS011;67727;50.236;22.452;2023-03-01T15:02:25;27.20;;;13.20;;
78430;SDS011;67727;50.236;22.452;2023-03-01T15:04:55;18.80;;;9.90;;
78430;SDS011;67727;50.236;22.452;2023-03-01T15:07:31;18.90;;;9.90;;
78430;SDS011;67727;50.236;22.452;2023-03-01T15:10:03;15.20;;;8.00;;
78430;SDS011;67727;50.236;22.452;2023-03-01T15:12:34;15.50;;;9.00;;
78430;SDS011;67727;50.236;22.452;2023-03-01T15:15:18;18.50;;;10.40;;
78430;SDS011;67727;50.236;22.452;2023-03-01T15:17:59;23.70;;;10.50;;
78430;SDS011;67727;50.236;22.452;2023-03-01T15:20:29;26.20;;;11.60;;
78430;SDS011;67727;50.236;22.452;2023-03-01T15:23:02;32.20;;;15.50;;
78430;SDS011;67727;50.236;22.452;2023-03-01T15:25:30;36.30;;;16.70;;
78430;SDS011;67727;50.236;22.452;2023-03-01T15:27:59;55.50;;;26.00;;
78430;SDS011;67727;50.236;22.452;2023-03-01T15:30:31;46.50;;;20.70;;
78430;SDS011;67727;50.236;22.452;2023-03-01T15:33:16;125.20;;;47.20;;
78430;SDS011;67727;50.236;22.452;2023-03-01T15:35:46;43.10;;;20.30;;
78430;SDS011;67727;50.236;22.452;2023-03-01T15:41:21;24.50;;;13.00;;
78430;SDS011;67727;50.236;22.452;2023-03-01T15:43:53;25.40;;;12.10;;
78430;SDS011;67727;50.236;22.452;2023-03-01T15:49:00;28.20;;;13.50;;
78430;SDS011;67727;50.236;22.452;2023-03-01T15:51:32;25.70;;;13.30;;
78430;SDS011;67727;50.236;22.452;2023-03-01T15:54:25;28.60;;;13.30;;
78430;SDS011;67727;50.236;22.452;2023-03-01T15:56:51;32.80;;;15.30;;
78430;SDS011;67727;50.236;22.452;2023-03-01T15:59:18;32.80;;;14.40;;
78430;SDS011;67727;50.236;22.452;2023-03-01T16:01:46;30.10;;;14.00;;
78430;SDS011;67727;50.236;22.452;2023-03-01T16:04:16;26.10;;;13.00;;
78430;SDS011;67727;50.236;22.452;2023-03-01T16:06:50;21.70;;;10.60;;
78430;SDS011;67727;50.236;22.452;2023-03-01T16:09:25;17.10;;;10.60;;
78430;SDS011;67727;50.236;22.452;2023-03-01T16:11:52;20.60;;;10.70;;
78430;SDS011;67727;50.236;22.452;2023-03-01T16:14:20;21.50;;;10.90;;
78430;SDS011;67727;50.236;22.452;2023-03-01T16:16:48;31.90;;;11.00;;
78430;SDS011;67727;50.236;22.452;2023-03-01T16:19:16;23.70;;;11.60;;
78430;SDS011;67727;50.236;22.452;2023-03-01T16:21:43;21.80;;;11.00;;
78430;SDS011;67727;50.236;22.452;2023-03-01T16:24:13;25.00;;;13.00;;
78430;SDS011;67727;50.236;22.452;2023-03-01T16:26:40;25.30;;;12.80;;
78430;SDS011;67727;50.236;22.452;2023-03-01T16:29:08;26.80;;;11.40;;
78430;SDS011;67727;50.236;22.452;2023-03-01T16:31:35;27.40;;;12.20;;
78430;SDS011;67727;50.236;22.452;2023-03-01T16:34:02;46.00;;;16.60;;
78430;SDS011;67727;50.236;22.452;2023-03-01T16:36:30;32.60;;;15.90;;
78430;SDS011;67727;50.236;22.452;2023-03-01T16:38:58;80.70;;;28.80;;
78430;SDS011;67727;50.236;22.452;2023-03-01T16:41:27;90.40;;;34.10;;
78430;SDS011;67727;50.236;22.452;2023-03-01T16:43:54;86.20;;;36.30;;
78430;SDS011;67727;50.236;22.452;2023-03-01T16:46:22;88.10;;;37.60;;
78430;SDS011;67727;50.236;22.452;2023-03-01T16:48:51;104.60;;;45.20;;
78430;SDS011;67727;50.236;22.452;2023-03-01T16:51:19;264.40;;;103.10;;
78430;SDS011;67727;50.236;22.452;2023-03-01T16:53:48;200.70;;;82.30;;
78430;SDS011;67727;50.236;22.452;2023-03-01T16:56:16;150.50;;;61.00;;